createdAt,value
2018-03-24T00:00:54.090Z,2.5
2018-03-24T00:01:55.746Z,2.4
2018-03-24T00:02:57.394Z,2.4
2018-03-24T00:03:59.036Z,2.5
2018-03-24T00:05:00.697Z,2.3
2018-03-24T00:06:02.354Z,2.5
2018-03-24T00:07:04.003Z,2.3
2018-03-24T00:08:05.650Z,2.3
2018-03-24T00:09:07.303Z,2.1
2018-03-24T00:10:08.945Z,2.0
2018-03-24T00:11:10.610Z,2.2
2018-03-24T00:12:12.247Z,2.2
2018-03-24T00:13:13.894Z,2.2
2018-03-24T00:14:15.545Z,2.1
2018-03-24T00:15:17.194Z,2.0
2018-03-24T00:16:18.852Z,2.1
2018-03-24T00:17:20.504Z,2.1
2018-03-24T00:18:22.146Z,2.0
2018-03-24T00:19:23.802Z,1.8
2018-03-24T00:20:25.452Z,1.9
2018-03-24T00:21:27.121Z,1.7
2018-03-24T00:22:28.764Z,1.8
2018-03-24T00:23:30.419Z,1.7
2018-03-24T00:24:32.143Z,1.7
2018-03-24T00:25:33.801Z,1.8
2018-03-24T00:26:35.448Z,2.0
2018-03-24T00:27:37.103Z,2.1
2018-03-24T00:28:38.752Z,2.0
2018-03-24T00:29:40.400Z,1.9
2018-03-24T00:30:42.047Z,1.8
2018-03-24T00:31:43.704Z,1.9
2018-03-24T00:32:45.545Z,1.9
2018-03-24T00:33:47.189Z,2.0
2018-03-24T00:34:48.833Z,2.1
2018-03-24T00:35:50.493Z,2.0
2018-03-24T00:36:52.134Z,2.0
2018-03-24T00:37:53.779Z,2.1
2018-03-24T00:38:55.618Z,2.1
2018-03-24T00:39:57.264Z,2.2
2018-03-24T00:40:58.919Z,2.1
2018-03-24T00:42:00.560Z,2.0
2018-03-24T00:43:02.214Z,2.0
2018-03-24T00:44:03.857Z,2.0
2018-03-24T00:45:05.512Z,2.0
2018-03-24T00:46:07.160Z,2.0
2018-03-24T00:47:08.815Z,2.0
2018-03-24T00:48:10.472Z,2.1
2018-03-24T00:49:12.115Z,2.1
2018-03-24T00:50:13.768Z,2.1
2018-03-24T00:51:15.421Z,2.1
2018-03-24T00:52:17.070Z,2.1
2018-03-24T00:53:18.737Z,2.1
2018-03-24T00:54:20.378Z,2.1
2018-03-24T00:55:22.031Z,2.1
2018-03-24T00:56:23.682Z,2.1
2018-03-24T00:57:25.323Z,2.1
2018-03-24T00:58:26.977Z,2.2
2018-03-24T00:59:28.623Z,2.1
2018-03-24T01:00:30.269Z,2.1
2018-03-24T01:01:31.919Z,2.1
2018-03-24T01:02:33.571Z,2.1
2018-03-24T01:03:35.218Z,2.1
2018-03-24T01:04:36.862Z,2.1
2018-03-24T01:05:38.510Z,2.1
2018-03-24T01:06:40.240Z,2.0
2018-03-24T01:07:41.879Z,2.0
2018-03-24T01:08:43.523Z,2.0
2018-03-24T01:09:45.183Z,2.0
2018-03-24T01:10:46.825Z,2.1
2018-03-24T01:11:48.473Z,1.9
2018-03-24T01:12:50.239Z,1.9
2018-03-24T01:13:51.882Z,1.9
2018-03-24T01:14:53.529Z,1.9
2018-03-24T01:15:55.173Z,1.7
2018-03-24T01:16:56.819Z,1.7
2018-03-24T01:17:58.462Z,1.7
2018-03-24T01:19:00.116Z,1.6
2018-03-24T01:20:01.770Z,1.7
2018-03-24T01:21:03.417Z,1.9
2018-03-24T01:22:05.054Z,1.8
2018-03-24T01:23:06.694Z,1.8
2018-03-24T01:24:08.355Z,1.7
2018-03-24T01:25:10.026Z,1.8
2018-03-24T01:26:11.665Z,1.6
2018-03-24T01:27:13.318Z,1.6
2018-03-24T01:28:15.034Z,1.4
2018-03-24T01:29:16.679Z,1.4
2018-03-24T01:30:18.320Z,1.1
2018-03-24T01:31:19.967Z,1.2
2018-03-24T01:32:21.609Z,1.3
2018-03-24T01:33:23.248Z,1.2
2018-03-24T01:34:24.897Z,1.1
2018-03-24T01:35:26.564Z,1.0
2018-03-24T01:36:28.201Z,1.1
2018-03-24T01:37:29.849Z,1.0
2018-03-24T01:38:31.496Z,0.9
2018-03-24T01:39:33.158Z,1.0
2018-03-24T01:40:34.805Z,1.1
2018-03-24T01:41:36.455Z,1.1
2018-03-24T01:42:38.179Z,1.1
2018-03-24T01:43:39.760Z,1.1
2018-03-24T01:44:41.408Z,1.3
2018-03-24T01:45:43.057Z,1.2
2018-03-24T01:46:44.710Z,1.2
2018-03-24T01:47:46.415Z,1.2
2018-03-24T01:48:48.003Z,1.3
2018-03-24T01:49:49.827Z,1.1
2018-03-24T01:50:51.476Z,1.2
2018-03-24T01:51:53.120Z,1.2
2018-03-24T01:52:54.828Z,1.2
2018-03-24T01:53:56.477Z,1.1
2018-03-24T01:54:58.266Z,1.0
2018-03-24T01:55:59.960Z,1.2
2018-03-24T01:57:01.618Z,1.2
2018-03-24T01:58:03.297Z,1.1
2018-03-24T01:59:04.919Z,1.1
2018-03-24T02:00:06.608Z,1.2
2018-03-24T02:01:08.260Z,1.2
2018-03-24T02:02:09.909Z,1.0
2018-03-24T02:03:11.555Z,1.0
2018-03-24T02:04:13.215Z,1.1
2018-03-24T02:05:14.853Z,1.0
2018-03-24T02:06:16.516Z,1.0
2018-03-24T02:07:18.226Z,1.0
2018-03-24T02:08:19.888Z,1.1
2018-03-24T02:09:21.530Z,1.2
2018-03-24T02:10:23.175Z,1.2
2018-03-24T02:11:24.833Z,1.1
2018-03-24T02:12:26.475Z,1.1
2018-03-24T02:13:28.116Z,1.0
2018-03-24T02:14:29.768Z,1.0
2018-03-24T02:15:31.417Z,1.0
2018-03-24T02:16:33.314Z,0.9
2018-03-24T02:17:34.959Z,0.9
2018-03-24T02:18:36.604Z,1.0
2018-03-24T02:19:38.338Z,0.9
2018-03-24T02:20:39.980Z,0.9
2018-03-24T02:21:41.691Z,0.9
2018-03-24T02:22:43.346Z,0.9
2018-03-24T02:23:45.064Z,0.9
2018-03-24T02:24:46.722Z,0.9
2018-03-24T02:25:48.365Z,1.0
2018-03-24T02:26:50.010Z,0.9
2018-03-24T02:27:51.661Z,1.0
2018-03-24T02:28:53.294Z,0.8
2018-03-24T02:29:54.995Z,0.8
2018-03-24T02:30:56.646Z,0.7
2018-03-24T02:31:58.295Z,0.6
2018-03-24T02:32:59.939Z,0.5
2018-03-24T02:34:01.586Z,0.3
2018-03-24T02:35:03.230Z,0.3
2018-03-24T02:36:04.870Z,0.0
2018-03-24T02:37:06.536Z,0.0
2018-03-24T02:38:08.183Z,-0.1
2018-03-24T02:39:09.825Z,0.0
2018-03-24T02:40:11.470Z,0.1
2018-03-24T02:41:13.105Z,0.0
2018-03-24T02:42:15.644Z,0.2
2018-03-24T02:43:17.291Z,0.4
2018-03-24T02:44:18.989Z,0.3
2018-03-24T02:45:20.654Z,-0.0
2018-03-24T02:46:22.305Z,0.1
2018-03-24T02:47:23.958Z,-0.1
2018-03-24T02:48:25.613Z,-0.2
2018-03-24T02:49:27.267Z,-0.3
2018-03-24T02:50:29.376Z,-0.0
2018-03-24T02:51:31.015Z,0.3
2018-03-24T02:52:32.663Z,0.2
2018-03-24T02:53:34.316Z,0.3
2018-03-24T02:54:35.956Z,0.2
2018-03-24T03:01:14.531Z,0.2
2018-03-24T03:02:16.171Z,0.2
2018-03-24T03:03:17.822Z,0.3
2018-03-24T03:04:19.459Z,0.3
2018-03-24T03:05:21.096Z,0.2
2018-03-24T03:06:22.734Z,0.4
2018-03-24T03:07:24.383Z,0.4
2018-03-24T03:08:26.031Z,0.5
2018-03-24T03:09:27.670Z,0.6
2018-03-24T03:10:29.315Z,0.8
2018-03-24T03:11:30.969Z,0.7
2018-03-24T03:12:32.622Z,0.7
2018-03-24T03:13:34.261Z,1.0
2018-03-24T03:14:35.965Z,1.0
2018-03-24T03:15:37.611Z,1.0
2018-03-24T03:16:39.257Z,1.0
2018-03-24T03:17:40.892Z,1.0
2018-03-24T03:18:42.534Z,0.9
2018-03-24T03:19:44.175Z,0.9
2018-03-24T03:20:45.828Z,0.9
2018-03-24T03:21:47.476Z,0.9
2018-03-24T03:22:49.128Z,0.7
2018-03-24T03:23:50.775Z,0.8
2018-03-24T03:24:52.427Z,0.5
2018-03-24T03:25:54.066Z,0.7
2018-03-24T03:26:55.713Z,0.6
2018-03-24T03:27:57.410Z,0.5
2018-03-24T03:28:59.003Z,0.5
2018-03-24T03:30:00.675Z,0.4
2018-03-24T03:31:02.329Z,0.4
2018-03-24T03:32:03.937Z,0.4
2018-03-24T03:33:05.602Z,0.4
2018-03-24T03:34:07.233Z,0.4
2018-03-24T03:35:08.875Z,0.4
2018-03-24T03:36:10.512Z,0.5
2018-03-24T03:37:12.167Z,0.4
2018-03-24T03:38:13.813Z,0.7
2018-03-24T03:39:15.459Z,0.8
2018-03-24T03:40:17.105Z,0.9
2018-03-24T03:41:18.754Z,1.1
2018-03-24T03:42:20.397Z,1.1
2018-03-24T03:43:22.053Z,1.2
2018-03-24T03:44:23.684Z,1.4
2018-03-24T03:45:26.051Z,1.4
2018-03-24T03:46:27.702Z,1.5
2018-03-24T03:47:29.355Z,1.4
2018-03-24T03:48:30.998Z,1.4
2018-03-24T03:49:32.644Z,1.4
2018-03-24T03:50:34.296Z,1.4
2018-03-24T03:51:35.934Z,1.4
2018-03-24T03:52:37.574Z,1.4
2018-03-24T03:53:39.228Z,1.5
2018-03-24T03:54:40.872Z,1.5
2018-03-24T03:55:42.513Z,1.6
2018-03-24T03:56:44.154Z,1.7
2018-03-24T03:57:45.795Z,1.6
2018-03-24T03:58:47.448Z,1.6
2018-03-24T03:59:49.161Z,1.7
2018-03-24T04:00:50.793Z,1.6
2018-03-24T04:01:52.439Z,1.7
2018-03-24T04:02:54.097Z,1.7
2018-03-24T04:03:55.749Z,1.8
2018-03-24T04:04:57.387Z,1.9
2018-03-24T04:05:59.039Z,1.9
2018-03-24T04:07:00.685Z,2.0
2018-03-24T04:08:02.337Z,2.0
2018-03-24T04:09:03.976Z,2.1
2018-03-24T04:10:05.638Z,2.0
2018-03-24T04:11:07.278Z,2.0
2018-03-24T04:12:08.939Z,2.0
2018-03-24T04:13:10.596Z,2.0
2018-03-24T04:14:12.239Z,2.1
2018-03-24T04:15:13.887Z,2.1
2018-03-24T04:16:15.532Z,2.1
2018-03-24T04:17:17.178Z,2.1
2018-03-24T04:18:18.820Z,2.2
2018-03-24T04:19:20.472Z,2.2
2018-03-24T04:20:22.114Z,2.2
2018-03-24T04:21:23.757Z,2.1
2018-03-24T04:22:25.410Z,2.3
2018-03-24T04:23:27.055Z,2.2
2018-03-24T04:24:28.694Z,2.2
2018-03-24T04:25:30.340Z,2.3
2018-03-24T04:26:31.995Z,2.3
2018-03-24T04:27:33.634Z,2.3
2018-03-24T04:28:35.283Z,2.4
2018-03-24T04:29:36.920Z,2.3
2018-03-24T04:30:38.559Z,2.3
2018-03-24T04:31:40.208Z,2.4
2018-03-24T04:32:41.846Z,2.4
2018-03-24T04:33:43.493Z,2.4
2018-03-24T04:34:45.135Z,2.4
2018-03-24T04:35:46.785Z,2.4
2018-03-24T04:36:48.415Z,2.4
2018-03-24T04:37:50.060Z,2.4
2018-03-24T04:38:51.705Z,2.4
2018-03-24T04:39:53.364Z,2.4
2018-03-24T04:40:55.021Z,2.4
2018-03-24T04:41:56.666Z,2.5
2018-03-24T04:42:58.311Z,2.4
2018-03-24T04:43:59.962Z,2.5
2018-03-24T04:45:01.608Z,2.4
2018-03-24T04:46:03.441Z,2.3
2018-03-24T04:47:05.089Z,2.4
2018-03-24T04:48:06.743Z,2.3
2018-03-24T04:49:08.395Z,2.4
2018-03-24T04:50:10.785Z,2.4
2018-03-24T04:51:12.434Z,2.4
2018-03-24T04:52:14.089Z,2.4
2018-03-24T04:53:15.727Z,2.3
2018-03-24T04:54:17.388Z,2.4
2018-03-24T04:55:20.265Z,2.4
2018-03-24T04:56:21.907Z,2.3
2018-03-24T04:57:23.557Z,2.4
2018-03-24T04:58:25.206Z,2.2
2018-03-24T04:59:26.855Z,2.3
2018-03-24T05:00:28.499Z,2.4
2018-03-24T05:01:30.151Z,2.3
2018-03-24T05:02:31.805Z,2.3
2018-03-24T05:03:33.451Z,2.4
2018-03-24T05:04:35.103Z,2.4
2018-03-24T05:05:36.739Z,2.4
2018-03-24T05:06:39.103Z,2.4
2018-03-24T05:07:40.750Z,2.4
2018-03-24T05:08:42.396Z,2.4
2018-03-24T05:09:44.049Z,2.4
2018-03-24T05:10:45.700Z,2.4
2018-03-24T05:11:47.349Z,2.4
2018-03-24T05:12:48.989Z,2.3
2018-03-24T05:13:50.643Z,2.4
2018-03-24T05:14:52.293Z,2.4
2018-03-24T05:15:53.937Z,2.5
2018-03-24T05:16:55.589Z,2.3
2018-03-24T05:17:57.242Z,2.4
2018-03-24T05:18:58.895Z,2.4
2018-03-24T05:20:00.582Z,2.4
2018-03-24T05:21:02.226Z,2.4
2018-03-24T05:22:03.870Z,2.4
2018-03-24T05:23:05.521Z,2.3
2018-03-24T05:24:07.185Z,2.3
2018-03-24T05:25:08.845Z,2.4
2018-03-24T05:26:10.494Z,2.3
2018-03-24T05:27:12.145Z,2.3
2018-03-24T05:28:13.795Z,2.4
2018-03-24T05:29:15.446Z,2.4
2018-03-24T05:30:17.102Z,2.4
2018-03-24T05:31:18.765Z,2.4
2018-03-24T05:32:20.414Z,2.4
2018-03-24T05:33:22.064Z,2.3
2018-03-24T05:34:23.718Z,2.4
2018-03-24T05:35:25.369Z,2.3
2018-03-24T05:36:27.028Z,2.3
2018-03-24T05:37:28.670Z,2.4
2018-03-24T05:38:30.339Z,2.4
2018-03-24T05:39:31.991Z,2.5
2018-03-24T05:40:33.640Z,2.5
2018-03-24T05:41:35.290Z,2.5
2018-03-24T05:42:36.940Z,2.5
2018-03-24T05:43:38.593Z,2.6
2018-03-24T05:44:40.245Z,2.6
2018-03-24T05:45:41.907Z,2.6
2018-03-24T05:46:43.562Z,2.6
2018-03-24T05:47:45.211Z,2.7
2018-03-24T05:48:46.858Z,2.6
2018-03-24T05:49:48.509Z,2.6
2018-03-24T05:50:50.163Z,2.6
2018-03-24T05:51:51.812Z,2.5
2018-03-24T05:52:53.473Z,2.5
2018-03-24T05:53:55.119Z,2.5
2018-03-24T05:54:56.773Z,2.5
2018-03-24T05:55:58.437Z,2.3
2018-03-24T05:57:00.080Z,2.2
2018-03-24T05:58:01.751Z,2.3
2018-03-24T05:59:03.416Z,2.2
2018-03-24T06:00:05.075Z,2.2
2018-03-24T06:01:06.727Z,2.3
2018-03-24T06:02:08.375Z,2.2
2018-03-24T06:03:10.044Z,2.3
2018-03-24T06:04:11.681Z,2.3
2018-03-24T06:05:13.333Z,2.3
2018-03-24T06:06:14.986Z,2.2
2018-03-24T06:07:16.639Z,2.3
2018-03-24T06:08:18.295Z,2.3
2018-03-24T06:09:19.946Z,2.3
2018-03-24T06:10:21.600Z,2.3
2018-03-24T06:11:23.271Z,2.2
2018-03-24T06:12:24.917Z,2.3
2018-03-24T06:13:26.581Z,2.3
2018-03-24T06:14:28.239Z,2.4
2018-03-24T06:15:29.890Z,2.5
2018-03-24T06:16:31.548Z,2.6
2018-03-24T06:17:33.204Z,2.5
2018-03-24T06:18:34.860Z,2.5
2018-03-24T06:19:36.514Z,2.5
2018-03-24T06:20:38.170Z,2.6
2018-03-24T06:21:40.527Z,2.8
2018-03-24T06:22:42.187Z,2.7
2018-03-24T06:23:43.848Z,2.6
2018-03-24T06:24:45.495Z,-40.0
2018-03-24T06:25:47.157Z,-40.0
2018-03-24T06:26:48.811Z,-40.0
2018-03-24T06:27:50.474Z,2.7
2018-03-24T06:28:52.130Z,2.7
2018-03-24T06:29:53.783Z,2.8
2018-03-24T06:30:55.427Z,2.8
2018-03-24T06:31:57.086Z,2.9
2018-03-24T06:32:58.740Z,3.0
2018-03-24T06:34:00.391Z,2.9
2018-03-24T06:35:02.067Z,3.0
2018-03-24T06:36:03.724Z,3.1
2018-03-24T06:37:05.387Z,3.2
2018-03-24T06:38:07.057Z,3.1
2018-03-24T06:39:08.700Z,3.1
2018-03-24T06:40:10.360Z,3.2
2018-03-24T06:41:12.015Z,3.4
2018-03-24T06:42:13.671Z,3.5
2018-03-24T06:43:15.322Z,3.2
2018-03-24T06:44:16.983Z,3.0
2018-03-24T06:45:18.644Z,3.2
2018-03-24T06:46:20.292Z,3.2
2018-03-24T06:47:21.944Z,3.2
2018-03-24T06:48:23.618Z,3.4
2018-03-24T06:49:25.275Z,3.6
2018-03-24T06:50:26.924Z,3.7
2018-03-24T06:51:28.574Z,3.9
2018-03-24T06:52:30.247Z,4.0
2018-03-24T06:53:31.906Z,4.0
2018-03-24T06:54:33.556Z,3.6
2018-03-24T06:55:35.219Z,3.3
2018-03-24T07:02:04.615Z,3.5
2018-03-24T07:03:06.268Z,3.6
2018-03-24T07:04:07.999Z,3.7
2018-03-24T07:05:09.660Z,3.8
2018-03-24T07:06:11.316Z,3.7
2018-03-24T07:07:12.971Z,3.7
2018-03-24T07:08:14.621Z,3.8
2018-03-24T07:09:16.276Z,4.0
2018-03-24T07:10:17.931Z,4.1
2018-03-24T07:11:19.603Z,3.8
2018-03-24T07:12:21.254Z,3.9
2018-03-24T07:13:22.919Z,3.9
2018-03-24T07:14:24.577Z,3.8
2018-03-24T07:15:26.239Z,3.6
2018-03-24T07:16:27.893Z,3.7
2018-03-24T07:17:29.553Z,3.7
2018-03-24T07:18:31.213Z,3.8
2018-03-24T07:19:32.873Z,3.8
2018-03-24T07:20:34.524Z,4.0
2018-03-24T07:21:36.185Z,3.9
2018-03-24T07:22:37.887Z,3.9
2018-03-24T07:23:39.481Z,4.0
2018-03-24T07:24:41.141Z,4.1
2018-03-24T07:25:42.795Z,4.1
2018-03-24T07:26:44.457Z,4.0
2018-03-24T07:27:46.112Z,4.1
2018-03-24T07:28:47.765Z,4.1
2018-03-24T07:29:49.417Z,4.5
2018-03-24T07:30:51.613Z,4.6
2018-03-24T07:31:53.266Z,4.6
2018-03-24T07:32:54.923Z,4.9
2018-03-24T07:33:57.153Z,5.2
2018-03-24T07:34:58.815Z,5.1
2018-03-24T07:36:00.487Z,5.2
2018-03-24T07:37:02.146Z,5.4
2018-03-24T07:38:03.805Z,5.6
2018-03-24T07:39:05.458Z,5.5
2018-03-24T07:40:07.120Z,5.4
2018-03-24T07:41:08.793Z,5.1
2018-03-24T07:42:10.476Z,5.3
2018-03-24T07:43:12.084Z,5.4
2018-03-24T07:44:13.747Z,5.4
2018-03-24T07:45:15.397Z,5.4
2018-03-24T07:46:17.064Z,5.9
2018-03-24T07:47:18.719Z,6.1
2018-03-24T07:48:20.372Z,6.0
2018-03-24T07:49:22.029Z,6.1
2018-03-24T07:50:24.365Z,6.1
2018-03-24T07:51:26.028Z,6.2
2018-03-24T07:52:28.570Z,6.2
2018-03-24T07:53:30.239Z,6.1
2018-03-24T07:54:31.893Z,6.3
2018-03-24T07:55:33.559Z,6.7
2018-03-24T07:56:35.215Z,6.9
2018-03-24T07:57:36.873Z,6.9
2018-03-24T07:58:39.199Z,7.0
2018-03-24T07:59:40.864Z,7.1
2018-03-24T08:00:42.529Z,7.4
2018-03-24T08:01:44.191Z,7.6
2018-03-24T08:02:45.858Z,7.6
2018-03-24T08:03:47.511Z,6.9
2018-03-24T08:04:49.166Z,6.9
2018-03-24T08:05:50.836Z,6.9
2018-03-24T08:06:52.503Z,6.9
2018-03-24T08:07:54.161Z,7.1
2018-03-24T08:08:56.074Z,7.1
2018-03-24T08:09:57.731Z,7.3
2018-03-24T08:11:00.293Z,7.7
2018-03-24T08:12:02.791Z,7.8
2018-03-24T08:13:03.611Z,7.9
2018-03-24T08:14:05.284Z,7.2
2018-03-24T08:15:06.942Z,6.5
2018-03-24T08:16:08.713Z,7.1
2018-03-24T08:17:10.358Z,8.0
2018-03-24T08:18:12.035Z,8.2
2018-03-24T08:19:13.726Z,8.7
2018-03-24T08:20:15.371Z,8.4
2018-03-24T08:21:17.094Z,9.8
2018-03-24T08:22:18.750Z,9.9
2018-03-24T08:23:25.066Z,10.5
2018-03-24T08:24:26.921Z,11.3
2018-03-24T08:25:29.099Z,10.7
2018-03-24T08:26:31.504Z,10.2
2018-03-24T08:27:34.896Z,11.2
2018-03-24T08:28:38.718Z,11.2
2018-03-24T08:29:40.282Z,10.3
2018-03-24T08:30:41.958Z,-40.0
2018-03-24T08:31:43.667Z,-40.0
2018-03-24T08:32:45.550Z,-40.0
2018-03-24T08:33:47.239Z,-40.0
2018-03-24T08:34:48.945Z,10.5
2018-03-24T08:35:50.653Z,10.5
2018-03-24T08:36:54.146Z,11.2
2018-03-24T08:37:56.243Z,11.8
2018-03-24T08:38:57.936Z,12.7
2018-03-24T08:39:59.631Z,13.5
2018-03-24T08:41:01.371Z,13.9
2018-03-24T08:42:03.066Z,14.7
2018-03-24T08:43:04.814Z,15.2
2018-03-24T08:44:06.822Z,15.6
2018-03-24T08:45:08.505Z,15.6
2018-03-24T08:46:10.216Z,15.7
2018-03-24T08:47:11.927Z,15.5
2018-03-24T08:48:13.623Z,15.8
2018-03-24T08:49:15.339Z,14.4
2018-03-24T08:50:17.085Z,14.9
2018-03-24T08:51:18.807Z,15.4
2018-03-24T08:52:20.481Z,15.0
2018-03-24T08:53:22.193Z,14.0
2018-03-24T08:54:24.069Z,12.7
2018-03-24T08:55:25.815Z,12.9
2018-03-24T08:56:27.505Z,12.9
2018-03-24T08:57:29.214Z,13.7
2018-03-24T08:58:30.913Z,13.0
2018-03-24T08:59:32.622Z,12.1
2018-03-24T09:00:34.344Z,11.3
2018-03-24T09:01:36.136Z,10.8
2018-03-24T09:02:37.871Z,10.0
2018-03-24T09:03:39.622Z,10.3
2018-03-24T09:04:41.296Z,9.3
2018-03-24T09:05:43.004Z,9.1
2018-03-24T09:06:44.661Z,9.2
2018-03-24T09:07:46.578Z,9.6
2018-03-24T09:08:48.314Z,9.5
2018-03-24T09:09:50.060Z,9.2
2018-03-24T09:10:52.483Z,9.4
2018-03-24T09:11:54.295Z,9.4
2018-03-24T09:12:55.958Z,9.9
2018-03-24T09:13:57.629Z,9.4
2018-03-24T09:14:59.293Z,9.2
2018-03-24T09:16:01.073Z,9.6
2018-03-24T09:17:02.900Z,9.9
2018-03-24T09:18:04.567Z,9.4
2018-03-24T09:19:06.249Z,9.2
2018-03-24T09:20:07.926Z,8.8
2018-03-24T09:21:09.607Z,8.6
2018-03-24T09:22:11.285Z,8.4
2018-03-24T09:23:13.074Z,8.7
2018-03-24T09:24:14.693Z,9.7
2018-03-24T09:25:16.401Z,9.9
2018-03-24T09:26:18.078Z,10.0
2018-03-24T09:27:19.944Z,9.6
2018-03-24T09:28:21.643Z,8.8
2018-03-24T09:29:23.387Z,9.5
2018-03-24T09:30:25.235Z,10.0
2018-03-24T09:31:26.945Z,10.3
2018-03-24T09:32:28.634Z,9.0
2018-03-24T09:33:30.390Z,9.2
2018-03-24T09:34:32.812Z,9.0
2018-03-24T09:35:35.069Z,8.7
2018-03-24T09:36:36.772Z,9.3
2018-03-24T09:37:38.500Z,9.0
2018-03-24T09:38:40.196Z,9.1
2018-03-24T09:39:41.964Z,8.8
2018-03-24T09:40:43.650Z,8.5
2018-03-24T09:41:45.332Z,9.2
2018-03-24T09:42:47.175Z,8.9
2018-03-24T09:43:49.433Z,8.3
2018-03-24T09:44:51.150Z,8.9
2018-03-24T09:45:52.881Z,9.0
2018-03-24T09:46:54.570Z,8.8
2018-03-24T09:47:56.304Z,9.0
2018-03-24T09:48:57.971Z,9.2
2018-03-24T09:50:00.892Z,9.6
2018-03-24T09:51:02.546Z,10.1
2018-03-24T09:52:04.657Z,10.8
2018-03-24T09:53:06.319Z,-40.0
2018-03-24T09:54:07.989Z,11.7
2018-03-24T09:55:09.682Z,11.2
2018-03-24T09:56:11.354Z,11.5
2018-03-24T09:57:13.010Z,11.4
2018-03-24T09:58:14.677Z,11.5
2018-03-24T09:59:16.402Z,-40.0
2018-03-24T10:00:18.036Z,12.2
2018-03-24T10:01:19.731Z,-40.0
2018-03-24T10:02:26.917Z,-40.0
2018-03-24T10:03:29.094Z,-40.0
2018-03-24T10:04:56.078Z,-40.0
2018-03-24T10:05:57.901Z,-40.0
2018-03-24T10:06:59.573Z,-40.0
2018-03-24T10:08:01.844Z,-40.0
2018-03-24T10:09:03.523Z,-40.0
2018-03-24T10:10:05.194Z,11.1
2018-03-24T10:11:06.871Z,-40.0
2018-03-24T10:12:08.533Z,11.4
2018-03-24T10:13:10.296Z,-40.0
2018-03-24T10:14:26.910Z,-40.0
2018-03-24T10:15:29.336Z,-40.0
2018-03-24T10:16:31.018Z,10.0
2018-03-24T10:17:32.679Z,-40.0
2018-03-24T10:18:34.347Z,10.6
2018-03-24T10:19:36.008Z,11.3
2018-03-24T10:20:37.682Z,10.5
2018-03-24T10:21:39.351Z,10.7
2018-03-24T10:22:41.011Z,10.5
2018-03-24T10:23:42.690Z,10.7
2018-03-24T10:24:44.379Z,9.6
2018-03-24T10:25:46.064Z,-40.0
2018-03-24T10:26:47.758Z,-40.0
2018-03-24T10:27:49.469Z,-40.0
2018-03-24T10:28:51.214Z,-40.0
2018-03-24T10:29:52.859Z,-40.0
2018-03-24T10:30:54.527Z,-40.0
2018-03-24T10:31:56.194Z,-40.0
2018-03-24T10:32:57.891Z,-40.0
2018-03-24T10:34:00.918Z,-40.0
2018-03-24T10:35:04.626Z,-40.0
2018-03-24T10:36:13.651Z,-40.0
2018-03-24T10:37:16.357Z,125.0
2018-03-24T10:38:18.031Z,-40.0
2018-03-24T10:39:58.951Z,-40.0
2018-03-24T10:41:08.894Z,-40.0
2018-03-24T10:43:37.682Z,-40.0
2018-03-24T10:44:40.658Z,-40.0
2018-03-24T10:45:42.841Z,-40.0
2018-03-24T10:46:44.645Z,-40.0
2018-03-24T10:47:46.319Z,10.3
2018-03-24T10:48:47.982Z,-40.0
2018-03-24T10:50:37.466Z,-40.0
2018-03-24T10:52:12.127Z,-40.0
2018-03-24T10:53:18.991Z,-40.0
2018-03-24T10:54:47.768Z,-40.0
2018-03-24T10:55:49.461Z,-40.0
2018-03-24T11:01:48.850Z,-40.0
2018-03-24T11:02:50.513Z,-40.0
2018-03-24T11:04:59.076Z,-40.0
2018-03-24T11:06:00.743Z,-40.0
2018-03-24T11:07:02.404Z,-40.0
2018-03-24T11:08:04.827Z,-40.0
2018-03-24T11:09:06.449Z,-40.0
2018-03-24T11:10:08.215Z,-40.0
2018-03-24T11:11:09.902Z,-40.0
2018-03-24T11:12:11.566Z,-40.0
2018-03-24T11:13:13.253Z,-40.0
2018-03-24T11:14:15.059Z,-40.0
2018-03-24T11:15:16.832Z,-40.0
2018-03-24T11:16:19.452Z,-40.0
2018-03-24T11:17:21.046Z,-40.0
2018-03-24T11:18:22.720Z,-40.0
2018-03-24T11:19:24.416Z,-40.0
2018-03-24T11:20:26.121Z,-40.0
2018-03-24T11:21:27.790Z,-40.0
2018-03-24T11:22:29.457Z,-40.0
2018-03-24T11:24:14.056Z,-40.0
2018-03-24T11:25:15.736Z,-40.0
2018-03-24T11:27:50.283Z,-40.0
2018-03-24T11:28:58.128Z,-40.0
2018-03-24T11:29:59.815Z,-40.0
2018-03-24T11:31:42.820Z,-40.0
2018-03-24T11:33:02.540Z,-40.0
2018-03-24T11:34:15.916Z,-40.0
2018-03-24T11:35:23.070Z,-40.0
2018-03-24T11:36:24.736Z,-40.0
2018-03-24T11:37:26.420Z,-40.0
2018-03-24T11:39:05.715Z,-40.0
2018-03-24T11:40:29.561Z,-40.0
2018-03-24T11:41:48.652Z,-40.0
2018-03-24T11:42:50.347Z,-40.0
2018-03-24T11:44:21.614Z,-40.0
2018-03-24T11:45:23.296Z,-40.0
2018-03-24T11:46:24.971Z,-40.0
2018-03-24T11:47:26.635Z,-40.0
2018-03-24T11:48:28.323Z,-40.0
2018-03-24T11:49:29.987Z,-40.0
2018-03-24T11:50:31.663Z,-40.0
2018-03-24T11:51:33.323Z,-40.0
2018-03-24T12:00:26.892Z,-40.0
2018-03-24T12:02:03.673Z,-40.0
2018-03-24T12:05:57.033Z,-40.0
2018-03-24T12:07:14.505Z,-40.0
2018-03-24T12:10:40.669Z,-40.0
2018-03-24T12:12:18.771Z,-40.0
2018-03-24T12:14:37.974Z,-40.0
2018-03-24T12:16:31.766Z,-40.0
2018-03-24T12:17:56.643Z,-40.0
2018-03-24T12:19:01.784Z,-40.0
2018-03-24T12:20:55.711Z,-40.0
2018-03-24T12:23:24.097Z,-40.0
2018-03-24T12:25:37.164Z,-40.0
2018-03-24T12:26:38.958Z,-40.0
2018-03-24T12:27:40.728Z,-40.0
2018-03-24T12:28:44.235Z,-40.0
2018-03-24T12:29:45.901Z,-40.0
2018-03-24T12:30:47.571Z,-40.0
2018-03-24T12:31:49.243Z,-40.0
2018-03-24T12:32:51.446Z,-40.0
2018-03-24T12:33:53.104Z,-40.0
2018-03-24T12:34:57.504Z,-40.0
2018-03-24T12:35:59.604Z,-40.0
2018-03-24T12:41:06.978Z,-40.0
2018-03-24T12:42:08.707Z,-40.0
2018-03-24T12:43:14.171Z,-40.0
2018-03-24T12:44:57.885Z,-40.0
2018-03-24T12:46:02.662Z,-40.0
2018-03-24T12:47:24.334Z,-40.0
2018-03-24T12:48:57.464Z,10.3
2018-03-24T12:50:49.747Z,-40.0
2018-03-24T12:52:11.173Z,11.0
2018-03-24T12:54:39.184Z,-40.0
2018-03-24T12:55:43.299Z,-40.0
2018-03-24T12:56:55.888Z,-40.0
2018-03-24T12:58:07.110Z,-40.0
2018-03-24T12:59:09.285Z,-40.0
2018-03-24T13:00:20.075Z,-40.0
2018-03-24T13:01:36.485Z,-40.0
2018-03-24T13:02:40.128Z,-40.0
2018-03-24T13:03:43.000Z,-40.0
2018-03-24T13:04:46.782Z,-40.0
2018-03-24T13:05:49.126Z,-40.0
2018-03-24T13:06:52.841Z,-40.0
2018-03-24T13:08:02.237Z,-40.0
2018-03-24T13:10:45.676Z,-40.0
2018-03-24T13:11:50.152Z,-40.0
2018-03-24T13:12:52.543Z,-40.0
2018-03-24T13:13:54.272Z,-40.0
2018-03-24T13:14:56.633Z,-40.0
2018-03-24T13:16:02.875Z,-40.0
2018-03-24T13:17:10.763Z,-40.0
2018-03-24T13:18:39.740Z,-40.0
2018-03-24T13:20:16.459Z,-40.0
2018-03-24T13:22:28.289Z,-40.0
2018-03-24T13:24:15.731Z,-40.0
2018-03-24T13:25:19.254Z,-40.0
2018-03-24T13:26:21.660Z,-40.0
2018-03-24T13:27:23.462Z,-40.0
2018-03-24T13:28:41.721Z,-40.0
2018-03-24T13:30:58.588Z,-40.0
2018-03-24T13:32:36.738Z,-40.0
2018-03-24T13:33:40.692Z,85.0
2018-03-24T13:34:42.776Z,-40.0
2018-03-24T13:35:45.483Z,-40.0
2018-03-24T13:36:49.593Z,-40.0
2018-03-24T13:37:57.220Z,-40.0
2018-03-24T13:39:02.032Z,-40.0
2018-03-24T13:40:03.810Z,-40.0
2018-03-24T13:41:05.551Z,-40.0
2018-03-24T13:42:16.550Z,-40.0
2018-03-24T13:43:18.302Z,-40.0
2018-03-24T13:44:20.031Z,-40.0
2018-03-24T13:45:27.284Z,-40.0
2018-03-24T13:47:19.377Z,-40.0
2018-03-24T13:49:00.325Z,-40.0
2018-03-24T13:50:02.073Z,-40.0
2018-03-24T13:51:03.778Z,-40.0
2018-03-24T13:52:06.259Z,-40.0
2018-03-24T13:53:10.821Z,-40.0
2018-03-24T13:54:14.599Z,-40.0
2018-03-24T13:55:16.333Z,-40.0
2018-03-24T13:56:18.755Z,-40.0
2018-03-24T13:57:21.097Z,-40.0
2018-03-24T13:58:22.885Z,-40.0
2018-03-24T13:59:25.215Z,-40.0
2018-03-24T14:00:27.017Z,-40.0
2018-03-24T14:01:29.160Z,-40.0
2018-03-24T14:02:30.989Z,-40.0
2018-03-24T14:03:34.326Z,-40.0
2018-03-24T14:04:36.106Z,-40.0
2018-03-24T14:05:37.852Z,-40.0
2018-03-24T14:06:40.512Z,-40.0
2018-03-24T14:07:41.295Z,-40.0
2018-03-24T14:08:44.420Z,-40.0
2018-03-24T14:09:51.701Z,-40.0
2018-03-24T14:10:54.013Z,-40.0
2018-03-24T14:12:10.088Z,-40.0
2018-03-24T14:13:12.556Z,-40.0
2018-03-24T14:14:15.662Z,-40.0
2018-03-24T14:15:17.425Z,-40.0
2018-03-24T14:16:19.158Z,-40.0
2018-03-24T14:17:28.894Z,-40.0
2018-03-24T14:18:30.577Z,-40.0
2018-03-24T14:19:33.550Z,-40.0
2018-03-24T14:20:35.305Z,-40.0
2018-03-24T14:21:38.652Z,-40.0
2018-03-24T14:22:41.347Z,-40.0
2018-03-24T14:23:43.013Z,-40.0
2018-03-24T14:24:46.493Z,-40.0
2018-03-24T14:25:49.499Z,-40.0
2018-03-24T14:26:51.455Z,-40.0
2018-03-24T14:27:53.366Z,-40.0
2018-03-24T14:28:58.776Z,-40.0
2018-03-24T14:30:03.903Z,-40.0
2018-03-24T14:31:05.678Z,-40.0
2018-03-24T14:32:08.787Z,-40.0
2018-03-24T14:33:16.982Z,-40.0
2018-03-24T14:34:20.071Z,-40.0
2018-03-24T14:35:21.826Z,-40.0
2018-03-24T14:36:23.597Z,-40.0
2018-03-24T14:37:27.365Z,-40.0
2018-03-24T14:38:30.908Z,-40.0
2018-03-24T14:39:32.560Z,-40.0
2018-03-24T14:40:36.428Z,-40.0
2018-03-24T14:41:39.823Z,-40.0
2018-03-24T14:42:41.983Z,-40.0
2018-03-24T14:43:46.024Z,-40.0
2018-03-24T14:44:49.054Z,-40.0
2018-03-24T14:45:50.760Z,-40.0
2018-03-24T14:46:52.537Z,-40.0
2018-03-24T14:47:54.952Z,-40.0
2018-03-24T14:48:57.551Z,-40.0
2018-03-24T14:49:59.303Z,-40.0
2018-03-24T14:51:02.761Z,-40.0
2018-03-24T14:52:04.928Z,-40.0
2018-03-24T14:53:07.018Z,-40.0
2018-03-24T14:54:09.563Z,-40.0
2018-03-24T14:55:11.267Z,-40.0
2018-03-24T15:01:10.759Z,10.2
2018-03-24T15:02:12.438Z,10.3
2018-03-24T15:03:14.095Z,10.3
2018-03-24T15:04:15.800Z,10.2
2018-03-24T15:05:22.735Z,10.3